createdAt,value
2023-04-14T00:01:38.056Z,93215.09
2023-04-14T00:04:04.976Z,93219.63
2023-04-14T00:06:32.910Z,93211.94
2023-04-14T00:08:59.865Z,93199.69
2023-04-14T00:11:27.439Z,93200.94
2023-04-14T00:13:55.997Z,93204.75
2023-04-14T00:16:22.782Z,93197.06
2023-04-14T00:18:49.505Z,93198.19
2023-04-14T00:21:16.319Z,93202.69
2023-04-14T00:23:42.965Z,93189.59
2023-04-14T00:26:09.615Z,93190.38
2023-04-14T00:28:36.451Z,93198.53
2023-04-14T00:31:03.098Z,93195.41
2023-04-14T00:33:29.726Z,93194.41
2023-04-14T00:35:57.279Z,93205.47
2023-04-14T00:38:24.023Z,93197.38
2023-04-14T00:40:50.695Z,93191.16
2023-04-14T00:43:20.585Z,93190.00
2023-04-14T00:45:49.533Z,93185.84
2023-04-14T00:48:17.685Z,93192.25
2023-04-14T00:50:44.795Z,93186.84
2023-04-14T00:53:12.771Z,93186.72
2023-04-14T00:55:41.211Z,93189.09
2023-04-14T00:58:08.304Z,93173.84
2023-04-14T01:00:36.216Z,93173.47
2023-04-14T01:03:03.391Z,93175.00
2023-04-14T01:05:30.534Z,93174.28
2023-04-14T01:07:57.718Z,93181.88
2023-04-14T01:10:30.947Z,93175.00
2023-04-14T01:13:12.805Z,93179.59
2023-04-14T01:15:44.856Z,93188.09
2023-04-14T01:18:29.509Z,93182.19
2023-04-14T01:21:03.233Z,93186.88
2023-04-14T01:23:36.974Z,93180.28
2023-04-14T01:26:19.338Z,93170.09
2023-04-14T01:29:02.413Z,93166.91
2023-04-14T01:31:34.639Z,93171.44
2023-04-14T01:34:24.659Z,93160.44
2023-04-14T01:37:11.952Z,93172.19
2023-04-14T01:39:41.732Z,93159.47
2023-04-14T01:42:13.254Z,93168.72
2023-04-14T01:44:41.498Z,93173.97
2023-04-14T01:47:11.555Z,93150.72
2023-04-14T01:49:39.944Z,93174.72
2023-04-14T01:52:10.647Z,93168.50
2023-04-14T01:54:42.720Z,93155.44
2023-04-14T01:57:11.880Z,93170.41
2023-04-14T01:59:41.389Z,93167.34
2023-04-14T02:02:10.091Z,93165.03
2023-04-14T02:04:39.626Z,93160.75
2023-04-14T02:07:08.313Z,93169.56
2023-04-14T02:09:36.798Z,93173.38
2023-04-14T02:12:06.295Z,93166.03
2023-04-14T02:14:35.052Z,93164.75
2023-04-14T02:17:02.965Z,93167.72
2023-04-14T02:19:30.665Z,93170.88
2023-04-14T02:21:59.466Z,93171.59
2023-04-14T02:24:26.308Z,93176.47
2023-04-14T02:27:22.632Z,93168.16
2023-04-14T02:29:53.791Z,93171.56
2023-04-14T02:32:24.918Z,93177.75
2023-04-14T02:34:57.506Z,93168.00
2023-04-14T02:37:27.408Z,93168.25
2023-04-14T02:40:00.888Z,93169.63
2023-04-14T02:42:30.415Z,93172.38
2023-04-14T02:45:03.150Z,93166.66
2023-04-14T02:47:35.935Z,93163.13
2023-04-14T02:50:05.798Z,93166.53
2023-04-14T02:52:33.948Z,93160.75
2023-04-14T02:55:02.423Z,93144.19
2023-04-14T02:57:29.925Z,93141.88
2023-04-14T02:59:58.856Z,93139.56
2023-04-14T03:02:26.116Z,93138.69
2023-04-14T03:04:53.774Z,93147.19
2023-04-14T03:07:23.184Z,93145.56
2023-04-14T03:09:50.683Z,93137.88
2023-04-14T03:12:19.441Z,93144.81
2023-04-14T03:14:47.113Z,93154.56
2023-04-14T03:17:15.000Z,93144.13
2023-04-14T03:19:42.989Z,93154.00
2023-04-14T03:22:11.274Z,93156.44
2023-04-14T03:24:38.996Z,93144.19
2023-04-14T03:27:09.104Z,93138.91
2023-04-14T03:29:44.719Z,93124.25
2023-04-14T03:32:13.735Z,93118.09
2023-04-14T03:34:46.483Z,93111.63
2023-04-14T03:37:18.070Z,93098.06
2023-04-14T03:39:46.893Z,93087.56
2023-04-14T03:42:13.853Z,93081.00
2023-04-14T03:44:46.267Z,93063.69
2023-04-14T03:47:14.531Z,93069.41
2023-04-14T03:49:46.923Z,93070.50
2023-04-14T03:52:16.896Z,93073.63
2023-04-14T03:54:46.724Z,93070.16
2023-04-14T03:57:17.651Z,93079.81
2023-04-14T03:59:47.215Z,93076.88
2023-04-14T04:02:15.130Z,93080.69
2023-04-14T04:04:43.604Z,93080.38
2023-04-14T04:07:13.956Z,93077.00
2023-04-14T04:09:42.870Z,93080.38
2023-04-14T04:12:13.282Z,93083.00
2023-04-14T04:14:42.974Z,93081.22
2023-04-14T04:17:13.954Z,93072.00
2023-04-14T04:19:43.732Z,93079.31
2023-04-14T04:22:14.543Z,93083.00
2023-04-14T04:24:42.640Z,93090.66
2023-04-14T04:27:20.398Z,93105.03
2023-04-14T04:29:53.997Z,93103.84
2023-04-14T04:32:21.199Z,93116.84
2023-04-14T04:34:52.463Z,93121.13
2023-04-14T04:37:19.966Z,93119.19
2023-04-14T04:39:48.623Z,93119.84
2023-04-14T04:42:15.303Z,93112.97
2023-04-14T04:44:42.304Z,93107.16
2023-04-14T04:47:10.067Z,93102.81
2023-04-14T04:49:36.718Z,93090.00
2023-04-14T04:52:03.495Z,93078.31
2023-04-14T04:54:30.651Z,93082.16
2023-04-14T04:56:58.754Z,93087.63
2023-04-14T04:59:25.675Z,93084.19
2023-04-14T05:01:52.436Z,93083.19
2023-04-14T05:04:19.253Z,93075.00
2023-04-14T05:06:46.038Z,93079.41
2023-04-14T05:09:12.791Z,93079.72
2023-04-14T05:11:39.408Z,93083.09
2023-04-14T05:14:06.470Z,93086.66
2023-04-14T05:16:33.593Z,93080.91
2023-04-14T05:19:00.753Z,93066.19
2023-04-14T05:21:27.668Z,93067.50
2023-04-14T05:23:54.284Z,93056.88
2023-04-14T05:28:52.322Z,93060.66
2023-04-14T05:31:20.311Z,93051.66
2023-04-14T05:33:47.082Z,93048.53
2023-04-14T05:36:13.802Z,93051.13
2023-04-14T05:38:40.351Z,93042.41
2023-04-14T05:41:07.581Z,93034.19
2023-04-14T05:43:34.477Z,93018.13
2023-04-14T05:46:02.348Z,93002.25
2023-04-14T05:48:30.904Z,93015.78
2023-04-14T05:50:58.224Z,93011.53
2023-04-14T05:53:25.124Z,93028.25
2023-04-14T05:55:52.480Z,93026.94
2023-04-14T05:58:19.717Z,93019.22
2023-04-14T06:00:46.393Z,93016.47
2023-04-14T06:03:13.244Z,93022.41
2023-04-14T06:05:40.388Z,93000.25
2023-04-14T06:08:07.055Z,92998.28
2023-04-14T06:10:35.911Z,93005.81
2023-04-14T06:13:03.099Z,92999.94
2023-04-14T06:15:29.860Z,92985.41
2023-04-14T06:17:56.746Z,92976.34
2023-04-14T06:20:23.607Z,92979.34
2023-04-14T06:22:50.582Z,92971.97
2023-04-14T06:25:17.440Z,92969.66
2023-04-14T06:27:44.095Z,92970.63
2023-04-14T06:30:10.976Z,92943.47
2023-04-14T06:32:37.771Z,92944.59
2023-04-14T06:35:05.176Z,92931.09
2023-04-14T06:37:32.441Z,92934.91
2023-04-14T06:39:59.253Z,92933.25
2023-04-14T06:42:25.973Z,92922.47
2023-04-14T06:44:52.545Z,92914.97
2023-04-14T06:47:21.079Z,92898.44
2023-04-14T06:49:47.965Z,92901.53
2023-04-14T06:52:14.612Z,92901.06
2023-04-14T06:54:42.358Z,92898.31
2023-04-14T06:57:09.402Z,92884.78
2023-04-14T06:59:36.897Z,92882.72
2023-04-14T07:02:03.783Z,92895.50
2023-04-14T07:04:30.604Z,92870.50
2023-04-14T07:07:02.328Z,92890.06
2023-04-14T07:09:29.429Z,92886.03
2023-04-14T07:11:57.693Z,92889.34
2023-04-14T07:14:24.715Z,92894.03
2023-04-14T07:16:52.321Z,92888.63
2023-04-14T07:19:19.278Z,92873.66
2023-04-14T07:21:47.154Z,92863.03
2023-04-14T07:24:15.606Z,92876.97
2023-04-14T07:26:44.230Z,92880.97
2023-04-14T07:29:10.925Z,92875.69
2023-04-14T07:31:38.953Z,92870.56
2023-04-14T07:34:06.445Z,92890.69
2023-04-14T07:36:33.302Z,92883.78
2023-04-14T07:39:00.266Z,92874.06
2023-04-14T07:41:28.058Z,92862.59
2023-04-14T07:43:55.850Z,92856.09
2023-04-14T07:46:22.577Z,92859.22
2023-04-14T07:48:49.308Z,92858.44
2023-04-14T07:51:16.223Z,92853.09
2023-04-14T07:53:45.041Z,92844.44
2023-04-14T07:56:12.617Z,92834.44
2023-04-14T07:58:40.156Z,92852.28
2023-04-14T08:01:07.806Z,92824.09
2023-04-14T08:03:37.262Z,92826.41
2023-04-14T08:06:05.977Z,92851.09
2023-04-14T08:08:33.859Z,92808.44
2023-04-14T08:11:00.643Z,92827.28
2023-04-14T08:13:27.362Z,92807.19
2023-04-14T08:15:54.054Z,92821.47
2023-04-14T08:18:21.881Z,92818.50
2023-04-14T08:20:48.711Z,92820.75
2023-04-14T08:23:15.651Z,92835.31
2023-04-14T08:25:42.581Z,92820.19
2023-04-14T08:28:09.241Z,92820.66
2023-04-14T08:30:35.832Z,92813.50
2023-04-14T08:33:02.543Z,92828.13
2023-04-14T08:35:37.096Z,92825.19
2023-04-14T08:38:08.501Z,92840.94
2023-04-14T08:40:43.222Z,92819.22
2023-04-14T08:43:12.428Z,92828.44
2023-04-14T08:45:42.240Z,92846.25
2023-04-14T08:48:10.399Z,92829.56
2023-04-14T08:50:39.052Z,92848.03
2023-04-14T08:53:09.568Z,92858.81
2023-04-14T08:55:43.466Z,92894.31
2023-04-14T08:58:13.414Z,92863.56
2023-04-14T09:00:41.131Z,92859.09
2023-04-14T09:03:09.443Z,92857.88
2023-04-14T09:05:37.492Z,92854.13
2023-04-14T09:08:04.852Z,92871.22
2023-04-14T09:10:31.992Z,92871.66
2023-04-14T09:12:59.762Z,92870.81
2023-04-14T09:15:29.121Z,92858.78
2023-04-14T09:17:56.248Z,92860.13
2023-04-14T09:20:35.614Z,92851.53
2023-04-14T09:23:08.265Z,92841.69
2023-04-14T09:25:34.970Z,92818.38
2023-04-14T09:28:02.257Z,92842.56
2023-04-14T09:30:29.255Z,92832.59
2023-04-14T09:32:57.130Z,92886.88
2023-04-14T09:35:42.240Z,92873.19
2023-04-14T09:38:08.870Z,92856.66
2023-04-14T09:40:35.493Z,92853.53
2023-04-14T09:43:02.274Z,92868.03
2023-04-14T09:45:56.030Z,92869.19
2023-04-14T09:48:22.958Z,92917.69
2023-04-14T09:51:09.788Z,92900.28
2023-04-14T09:53:38.728Z,92869.91
2023-04-14T09:56:07.725Z,92882.22
2023-04-14T09:58:43.021Z,92884.91
2023-04-14T10:01:18.117Z,92870.09
2023-04-14T10:03:47.248Z,92891.34
2023-04-14T10:06:14.245Z,92902.84
2023-04-14T10:08:45.008Z,92908.81
2023-04-14T10:11:14.897Z,92931.88
2023-04-14T10:13:42.326Z,92917.28
2023-04-14T10:16:09.406Z,92944.66
2023-04-14T10:18:36.353Z,92973.94
2023-04-14T10:21:04.005Z,92956.41
2023-04-14T10:23:31.930Z,92970.59
2023-04-14T10:25:58.692Z,92994.69
2023-04-14T10:28:28.822Z,93015.75
2023-04-14T10:30:57.786Z,93065.59
2023-04-14T10:33:24.986Z,93059.84
2023-04-14T10:35:59.148Z,93066.50
2023-04-14T10:38:42.729Z,93089.47
2023-04-14T10:41:10.092Z,93116.09
2023-04-14T10:43:38.149Z,93131.66
2023-04-14T10:46:06.629Z,93135.72
2023-04-14T10:48:41.313Z,93163.06
2023-04-14T10:51:09.905Z,93168.78
2023-04-14T10:53:55.594Z,93191.13
2023-04-14T10:56:24.499Z,93214.75
2023-04-14T10:58:59.061Z,93222.53
2023-04-14T11:01:30.115Z,93235.16
2023-04-14T11:03:58.060Z,93260.56
2023-04-14T11:06:55.670Z,93260.00
2023-04-14T11:09:25.889Z,93272.75
2023-04-14T11:11:54.907Z,93284.44
2023-04-14T11:14:30.856Z,93315.00
2023-04-14T11:17:05.316Z,93327.03
2023-04-14T11:19:33.459Z,93312.84
2023-04-14T11:22:00.261Z,93303.13
2023-04-14T11:24:28.157Z,93318.22
2023-04-14T11:26:55.846Z,93314.00
2023-04-14T11:29:23.076Z,93319.34
2023-04-14T11:32:04.233Z,93323.97
2023-04-14T11:34:31.514Z,93335.47
2023-04-14T11:36:58.605Z,93341.91
2023-04-14T11:39:25.742Z,93359.22
2023-04-14T11:41:52.561Z,93360.63
2023-04-14T11:44:22.372Z,93378.34
2023-04-14T11:46:50.144Z,93372.81
2023-04-14T11:49:17.548Z,93399.69
2023-04-14T11:51:44.363Z,93404.94
2023-04-14T11:54:13.178Z,93401.56
2023-04-14T11:56:40.539Z,93406.09
2023-04-14T11:59:07.209Z,93403.31
2023-04-14T12:01:33.888Z,93385.34
2023-04-14T12:04:00.740Z,93377.56
2023-04-14T12:06:27.823Z,93388.81
2023-04-14T12:08:56.982Z,93386.50
2023-04-14T12:11:24.147Z,93375.28
2023-04-14T12:13:52.743Z,93376.16
2023-04-14T12:16:19.810Z,93385.53
2023-04-14T12:18:46.818Z,93390.22
2023-04-14T12:21:18.642Z,93386.63
2023-04-14T12:23:50.678Z,93358.41
2023-04-14T12:26:19.716Z,93344.19
2023-04-14T12:28:55.049Z,93350.16
2023-04-14T12:31:29.718Z,93323.63
2023-04-14T12:34:03.812Z,93328.53
2023-04-14T12:36:48.012Z,93292.84
2023-04-14T12:39:16.597Z,93301.97
2023-04-14T12:41:43.556Z,93294.03
2023-04-14T12:44:18.474Z,93306.31
2023-04-14T12:46:49.985Z,93299.06
2023-04-14T12:49:36.772Z,93271.91
2023-04-14T12:52:08.305Z,93285.56
2023-04-14T12:54:50.162Z,93292.78
2023-04-14T12:57:16.897Z,93276.34
2023-04-14T12:59:43.794Z,93296.53
2023-04-14T13:02:10.561Z,93304.19
2023-04-14T13:04:37.408Z,93286.00
2023-04-14T13:07:04.117Z,93301.28
2023-04-14T13:09:31.849Z,93303.75
2023-04-14T13:11:58.707Z,93304.69
2023-04-14T13:14:25.365Z,93271.88
2023-04-14T13:16:53.944Z,93259.88
2023-04-14T13:19:21.255Z,93240.16
2023-04-14T13:21:47.900Z,93240.00
2023-04-14T13:24:14.568Z,93245.38
2023-04-14T13:26:41.449Z,93228.44
2023-04-14T13:29:08.223Z,93246.38
2023-04-14T13:31:36.021Z,93245.59
2023-04-14T13:34:02.662Z,93276.59
2023-04-14T13:36:29.500Z,93254.84
2023-04-14T13:38:57.043Z,93285.88
2023-04-14T13:41:24.602Z,93286.31
2023-04-14T13:43:51.279Z,93256.19
2023-04-14T13:46:19.294Z,93223.81
2023-04-14T13:48:46.083Z,93218.84
2023-04-14T13:51:12.776Z,93221.13
2023-04-14T13:53:39.392Z,93226.94
2023-04-14T13:56:06.504Z,93223.09
2023-04-14T13:58:33.144Z,93227.53
2023-04-14T14:01:09.013Z,93214.22
2023-04-14T14:03:38.603Z,93186.56
2023-04-14T14:06:05.531Z,93171.44
2023-04-14T14:08:32.378Z,93207.06
2023-04-14T14:10:59.086Z,93165.63
2023-04-14T14:13:26.936Z,93152.63
2023-04-14T14:15:53.937Z,93128.13
2023-04-14T14:18:20.645Z,93150.53
2023-04-14T14:20:47.381Z,93142.13
2023-04-14T14:23:15.648Z,93122.19
2023-04-14T14:25:43.184Z,93152.47
2023-04-14T14:28:11.809Z,93131.69
2023-04-14T14:30:38.904Z,93133.66
2023-04-14T14:33:05.866Z,93131.03
2023-04-14T14:35:32.504Z,93121.13
2023-04-14T14:38:00.740Z,93116.00
2023-04-14T14:40:29.024Z,93114.16
2023-04-14T14:42:55.677Z,93121.59
2023-04-14T14:45:31.034Z,93132.22
2023-04-14T14:47:59.362Z,93132.25
2023-04-14T14:50:26.290Z,93154.53
2023-04-14T14:52:52.843Z,93151.78
2023-04-14T14:55:19.502Z,93140.63
2023-04-14T14:57:46.283Z,93145.50
2023-04-14T15:00:13.499Z,93143.28
2023-04-14T15:02:40.803Z,93162.66
2023-04-14T15:05:08.195Z,93158.81
2023-04-14T15:07:34.823Z,93185.25
2023-04-14T15:10:04.488Z,93204.97
2023-04-14T15:12:32.016Z,93188.19
2023-04-14T15:14:58.951Z,93183.13
2023-04-14T15:17:25.566Z,93186.66
2023-04-14T15:19:52.787Z,93191.28
2023-04-14T15:22:19.411Z,93184.19
2023-04-14T15:24:46.044Z,93185.34
2023-04-14T15:27:12.734Z,93182.72
2023-04-14T15:29:39.389Z,93190.09
2023-04-14T15:32:06.103Z,93190.13
2023-04-14T15:34:32.929Z,93199.34
2023-04-14T15:37:00.464Z,93192.59
2023-04-14T15:39:28.709Z,93210.13
2023-04-14T15:41:55.876Z,93193.06
2023-04-14T15:44:22.729Z,93188.81
2023-04-14T15:46:49.970Z,93184.59
2023-04-14T15:49:16.539Z,93191.56
2023-04-14T15:51:43.253Z,93192.25
2023-04-14T15:54:10.905Z,93183.72
2023-04-14T15:56:37.519Z,93193.16
2023-04-14T15:59:04.153Z,93192.75
2023-04-14T16:01:30.973Z,93202.41
2023-04-14T16:03:57.671Z,93187.84
2023-04-14T16:06:24.441Z,93177.75
2023-04-14T16:08:53.428Z,93179.88
2023-04-14T16:11:20.215Z,93187.00
2023-04-14T16:13:46.937Z,93184.66
2023-04-14T16:16:16.055Z,93193.84
2023-04-14T16:18:42.694Z,93198.22
2023-04-14T16:21:09.462Z,93195.28
2023-04-14T16:23:36.371Z,93197.16
2023-04-14T16:26:03.174Z,93197.22
2023-04-14T16:28:29.738Z,93197.66
2023-04-14T16:31:02.976Z,93210.22
2023-04-14T16:33:31.693Z,93210.16
2023-04-14T16:36:03.527Z,93216.28
2023-04-14T16:38:30.679Z,93221.69
2023-04-14T16:40:58.663Z,93219.03
2023-04-14T16:43:28.028Z,93209.97
2023-04-14T16:46:02.488Z,93216.97
2023-04-14T16:48:29.567Z,93219.31
2023-04-14T16:50:56.238Z,93214.53
2023-04-14T16:53:22.835Z,93224.03
2023-04-14T16:55:49.520Z,93227.84
2023-04-14T16:58:16.771Z,93223.81
2023-04-14T17:00:43.456Z,93219.13
2023-04-14T17:03:10.346Z,93221.78
2023-04-14T17:05:37.194Z,93213.94
2023-04-14T17:08:03.837Z,93219.66
2023-04-14T17:10:31.230Z,93201.00
2023-04-14T17:12:57.851Z,93206.38
2023-04-14T17:15:24.414Z,93214.53
2023-04-14T17:17:51.083Z,93222.63
2023-04-14T17:20:18.242Z,93210.34
2023-04-14T17:22:44.941Z,93225.69
2023-04-14T17:25:14.926Z,93211.66
2023-04-14T17:27:41.577Z,93210.88
2023-04-14T17:30:10.904Z,93220.38
2023-04-14T17:32:39.964Z,93222.63
2023-04-14T17:35:07.765Z,93221.13
2023-04-14T17:37:35.628Z,93225.78
2023-04-14T17:40:06.159Z,93224.56
2023-04-14T17:42:34.312Z,93228.03
2023-04-14T17:45:01.514Z,93238.44
2023-04-14T17:47:28.213Z,93228.88
2023-04-14T17:49:55.084Z,93236.47
2023-04-14T17:52:21.988Z,93243.03
2023-04-14T17:54:49.947Z,93248.41
2023-04-14T17:57:17.437Z,93245.75
2023-04-14T17:59:45.167Z,93248.94
2023-04-14T18:02:15.921Z,93250.19
2023-04-14T18:04:42.701Z,93261.00
2023-04-14T18:07:09.403Z,93271.44
2023-04-14T18:09:36.041Z,93273.00
2023-04-14T18:12:03.306Z,93278.72
2023-04-14T18:14:31.088Z,93275.63
2023-04-14T18:16:58.507Z,93277.19
2023-04-14T18:19:25.231Z,93280.28
2023-04-14T18:21:52.399Z,93276.78
2023-04-14T18:26:48.571Z,93286.38
2023-04-14T18:29:15.211Z,93281.00
2023-04-14T18:31:42.778Z,93283.25
2023-04-14T18:34:13.070Z,93275.59
2023-04-14T18:36:40.413Z,93278.28
2023-04-14T18:39:07.929Z,93284.06
2023-04-14T18:41:35.139Z,93278.66
2023-04-14T18:44:03.408Z,93273.69
2023-04-14T18:46:30.641Z,93277.19
2023-04-14T18:48:57.300Z,93271.41
2023-04-14T18:51:23.888Z,93274.88
2023-04-14T18:53:50.564Z,93270.69
2023-04-14T18:56:17.180Z,93289.84
2023-04-14T18:58:43.833Z,93286.78
2023-04-14T19:01:10.532Z,93278.34
2023-04-14T19:03:37.791Z,93269.41
2023-04-14T19:06:04.835Z,93274.88
2023-04-14T19:08:31.538Z,93269.91
2023-04-14T19:10:59.280Z,93270.25
2023-04-14T19:13:26.171Z,93268.75
2023-04-14T19:15:52.878Z,93268.75
2023-04-14T19:18:20.139Z,93280.25
2023-04-14T19:20:47.815Z,93282.16
2023-04-14T19:23:14.436Z,93272.06
2023-04-14T19:25:41.890Z,93282.84
2023-04-14T19:28:16.520Z,93283.81
2023-04-14T19:30:45.848Z,93294.34
2023-04-14T19:33:13.098Z,93285.41
2023-04-14T19:35:40.163Z,93288.53
2023-04-14T19:38:07.824Z,93294.38
2023-04-14T19:40:34.408Z,93300.72
2023-04-14T19:43:01.178Z,93300.28
2023-04-14T19:45:27.799Z,93272.41
2023-04-14T19:47:54.494Z,93288.38
2023-04-14T19:50:22.848Z,93289.94
2023-04-14T19:52:51.450Z,93284.69
2023-04-14T19:55:18.645Z,93284.59
2023-04-14T19:57:45.731Z,93289.16
2023-04-14T20:00:12.876Z,93283.16
2023-04-14T20:02:40.715Z,93282.44
2023-04-14T20:05:07.774Z,93274.84
2023-04-14T20:07:34.534Z,93288.03
2023-04-14T20:10:01.731Z,93284.53
2023-04-14T20:12:28.504Z,93281.91
2023-04-14T20:14:55.132Z,93287.19
2023-04-14T20:17:22.731Z,93299.19
2023-04-14T20:19:50.651Z,93293.09
2023-04-14T20:22:17.313Z,93293.59
2023-04-14T20:24:44.058Z,93296.78
2023-04-14T20:27:11.104Z,93307.19
2023-04-14T20:29:37.706Z,93296.06
2023-04-14T20:32:04.427Z,93312.44
2023-04-14T20:34:31.139Z,93328.41
2023-04-14T20:36:57.868Z,93310.91
2023-04-14T20:39:25.032Z,93303.94
2023-04-14T20:41:51.751Z,93313.94
2023-04-14T20:44:18.425Z,93317.44
2023-04-14T20:46:45.282Z,93318.28
2023-04-14T20:49:11.949Z,93322.19
2023-04-14T20:51:39.501Z,93309.59
2023-04-14T20:54:08.053Z,93321.31
2023-04-14T20:56:34.781Z,93326.13
2023-04-14T20:59:02.592Z,93330.56
2023-04-14T21:01:29.611Z,93323.31
2023-04-14T21:03:56.480Z,93319.13
2023-04-14T21:06:23.687Z,93328.41
2023-04-14T21:08:51.024Z,93328.91
2023-04-14T21:11:18.892Z,93325.28
2023-04-14T21:15:30.990Z,93330.03
2023-04-14T21:16:35.274Z,93318.59
2023-04-14T21:19:03.941Z,93322.31
2023-04-14T21:21:31.897Z,93325.19
2023-04-14T21:23:58.781Z,93334.00
2023-04-14T21:26:26.298Z,93332.81
2023-04-14T21:28:52.988Z,93325.28
2023-04-14T21:31:19.728Z,93336.31
2023-04-14T21:33:46.918Z,93329.72
2023-04-14T21:36:13.572Z,93319.63
2023-04-14T21:38:40.397Z,93328.44
2023-04-14T21:41:08.116Z,93330.94
2023-04-14T21:43:35.461Z,93319.84
2023-04-14T21:46:02.245Z,93324.69
2023-04-14T21:48:28.991Z,93316.59
2023-04-14T21:50:55.583Z,93320.91
2023-04-14T21:53:22.258Z,93324.94
2023-04-14T21:56:09.428Z,93332.00
2023-04-14T21:58:36.641Z,93320.16
2023-04-14T22:01:03.484Z,93326.75
2023-04-14T22:03:30.395Z,93321.25
2023-04-14T22:05:57.120Z,93332.78
2023-04-14T22:08:24.487Z,93322.19
2023-04-14T22:10:52.608Z,93332.53
2023-04-14T22:13:19.257Z,93332.78
2023-04-14T22:15:45.925Z,93336.22
2023-04-14T22:18:12.679Z,93335.66
2023-04-14T22:20:39.767Z,93332.78
2023-04-14T22:23:06.766Z,93336.22
2023-04-14T22:25:34.792Z,93330.09
2023-04-14T22:28:02.212Z,93335.56
2023-04-14T22:30:29.965Z,93325.97
2023-04-14T22:32:57.472Z,93334.38
2023-04-14T22:35:24.151Z,93327.47
2023-04-14T22:37:51.763Z,93318.41
2023-04-14T22:40:18.344Z,93323.78
2023-04-14T22:42:45.031Z,93324.13
2023-04-14T22:45:11.653Z,93320.22
2023-04-14T22:47:38.323Z,93313.69
2023-04-14T22:50:05.964Z,93315.97
2023-04-14T22:52:32.623Z,93313.91
2023-04-14T22:54:59.317Z,93309.00
2023-04-14T22:57:26.975Z,93308.41
2023-04-14T22:59:53.743Z,93328.41
2023-04-14T23:02:21.520Z,93351.50
2023-04-14T23:04:48.391Z,93372.88
2023-04-14T23:07:15.659Z,93359.16
2023-04-14T23:09:42.525Z,93361.13
2023-04-14T23:12:09.159Z,93353.16
2023-04-14T23:14:35.807Z,93345.75
2023-04-14T23:17:02.462Z,93351.78
2023-04-14T23:19:29.044Z,93349.00
2023-04-14T23:21:55.695Z,93343.44
2023-04-14T23:24:23.520Z,93340.94
2023-04-14T23:26:50.367Z,93341.97
2023-04-14T23:29:17.054Z,93342.00
2023-04-14T23:31:43.667Z,93343.09
2023-04-14T23:34:11.077Z,93338.47
2023-04-14T23:36:37.851Z,93339.16
2023-04-14T23:39:04.831Z,93338.97
2023-04-14T23:41:31.636Z,93331.28
2023-04-14T23:43:58.587Z,93327.72
2023-04-14T23:46:25.384Z,93321.16
2023-04-14T23:48:53.304Z,93325.56
2023-04-14T23:51:22.109Z,93337.66
2023-04-14T23:53:49.242Z,93336.06
2023-04-14T23:56:16.410Z,93351.22
2023-04-14T23:58:43.285Z,93365.47
